Time;durP1;ratioP1;P1;durP2;ratioP2;P2;SDS_P1;SDS_P2;PMS_P1;PMS_P2;Temp;Humidity;BMP_temperature;BMP_pressure;BME280_temperature;BME280_humidity;BME280_pressure;Samples;Min_cycle;Max_cycle;Signal;HPM_P1;HPM_P2
2022/09/06 00:01:24;;;;;;;34.72;7.68;;;;;;;24.20;55.73;100636.13;5051804;28;20021;-77
2022/09/06 00:03:50;;;;;;;30.85;6.65;;;;;;;24.40;55.04;100639.19;5052151;28;20063;-79
2022/09/06 00:06:19;;;;;;;33.50;7.78;;;;;;;24.20;55.43;100628.53;5052139;28;20020;-78
2022/09/06 00:08:46;;;;;;;40.50;8.38;;;;;;;24.18;55.51;100642.13;5052303;28;20033;-77
2022/09/06 00:11:13;;;;;;;34.25;8.32;;;;;;;24.44;54.94;100639.97;5052200;28;20028;-78
2022/09/06 00:13:39;;;;;;;32.08;7.25;;;;;;;24.57;54.36;100639.06;5052074;28;20029;-80
2022/09/06 00:16:10;;;;;;;27.83;7.35;;;;;;;24.47;54.41;100639.16;5052292;28;20391;-81
2022/09/06 00:18:36;;;;;;;34.47;8.02;;;;;;;24.39;54.98;100635.59;5052379;28;20033;-81
2022/09/06 00:21:11;;;;;;;34.67;7.88;;;;;;;24.35;55.00;100638.44;5052042;28;20452;-78
2022/09/06 00:23:37;;;;;;;37.88;8.18;;;;;;;24.42;54.57;100639.59;5051947;28;20033;-78
2022/09/06 00:26:03;;;;;;;39.30;8.98;;;;;;;24.43;54.44;100638.38;5051936;28;20536;-78
2022/09/06 00:28:29;;;;;;;33.60;7.80;;;;;;;24.41;54.80;100641.59;5051538;28;20025;-82
2022/09/06 00:30:55;;;;;;;43.28;9.45;;;;;;;24.37;54.64;100634.44;5051994;28;20025;-82
2022/09/06 00:33:21;;;;;;;37.85;9.32;;;;;;;24.22;55.28;100639.28;5050644;28;20035;-80
2022/09/06 00:35:48;;;;;;;35.83;8.25;;;;;;;24.40;54.81;100634.41;5052134;28;20029;-81
2022/09/06 00:38:13;;;;;;;41.38;8.35;;;;;;;24.34;54.80;100636.84;5052131;28;20031;-81
2022/09/06 00:40:39;;;;;;;44.50;8.38;;;;;;;24.46;54.03;100634.75;5051981;28;20025;-81
2022/09/06 00:43:05;;;;;;;36.58;8.32;;;;;;;24.44;54.24;100628.81;5052021;28;20032;-79
2022/09/06 00:45:31;;;;;;;38.38;8.25;;;;;;;24.37;54.52;100626.84;5052090;28;20036;-81
2022/09/06 00:47:58;;;;;;;35.75;8.40;;;;;;;24.29;54.71;100631.66;5052028;28;20116;-80
2022/09/06 00:50:24;;;;;;;29.92;6.75;;;;;;;24.19;54.91;100626.16;5051810;28;20033;-81
2022/09/06 00:52:52;;;;;;;44.15;8.70;;;;;;;24.22;54.53;100631.72;5051468;28;20135;-80
2022/09/06 00:55:19;;;;;;;26.00;6.35;;;;;;;24.26;54.60;100637.28;5051486;28;20028;-79
2022/09/06 00:57:49;;;;;;;29.95;6.53;;;;;;;24.33;54.22;100626.06;5051624;28;20538;-79
2022/09/06 01:00:16;;;;;;;31.33;7.85;;;;;;;24.28;54.17;100630.09;5051404;28;20024;-80
2022/09/06 01:02:42;;;;;;;35.85;10.00;;;;;;;24.29;54.02;100628.88;5051878;28;20045;-78
2022/09/06 01:05:10;;;;;;;29.15;7.38;;;;;;;24.47;53.35;100633.56;5054468;28;20064;-79
2022/09/06 01:07:53;;;;;;;33.67;7.97;;;;;;;24.21;54.25;100632.91;5055310;28;20116;-81
2022/09/06 01:11:01;;;;;;;30.92;6.82;;;;;;;24.16;54.33;100627.75;5055547;28;20139;-81
2022/09/06 01:13:41;;;;;;;32.35;7.10;;;;;;;24.14;54.41;100626.59;5055083;28;20039;-81
2022/09/06 01:16:12;;;;;;;;;;;;;;;24.12;53.92;100629.78;5056016;28;20024;-81
2022/09/06 01:18:52;;;;;;;31.75;7.22;;;;;;;23.94;54.55;100629.88;5055242;28;19916;-81
2022/09/06 01:21:27;;;;;;;29.55;6.47;;;;;;;23.92;55.12;100631.50;5055183;28;20137;-80
2022/09/06 01:24:20;;;;;;;30.40;7.68;;;;;;;23.72;55.28;100622.81;5055058;28;20032;-81
2022/09/06 01:27:28;;;;;;;27.77;7.22;;;;;;;23.80;55.23;100621.56;5055293;28;20150;-78
2022/09/06 01:30:11;;;;;;;35.05;8.38;;;;;;;23.75;55.52;100617.22;5055113;28;20386;-78
2022/09/06 01:32:49;;;;;;;34.20;6.90;;;;;;;23.84;54.94;100624.34;5054727;28;20028;-78
2022/09/06 01:35:25;;;;;;;27.67;7.57;;;;;;;23.73;55.22;100625.22;5055120;28;20025;-79
2022/09/06 01:37:50;;;;;;;41.85;8.70;;;;;;;23.84;55.09;100619.56;5054787;28;20056;-78
2022/09/06 01:40:16;;;;;;;36.17;7.85;;;;;;;23.78;55.03;100621.97;5054859;28;20028;-77
2022/09/06 01:42:45;;;;;;;29.23;6.35;;;;;;;23.74;55.25;100626.00;5054689;28;20024;-77
2022/09/06 01:45:14;;;;;;;36.20;7.35;;;;;;;23.84;54.79;100624.34;5054484;28;20530;-77
2022/09/06 01:48:08;;;;;;;38.63;8.10;;;;;;;23.82;55.14;100618.41;5046395;28;20033;-77
2022/09/06 01:50:59;;;;;;;30.63;8.00;;;;;;;23.47;56.27;100620.88;5054688;28;20079;-79
2022/09/06 01:53:46;;;;;;;31.73;7.85;;;;;;;23.73;55.38;100622.44;5037571;28;20033;-77
2022/09/06 01:56:36;;;;;;;33.15;7.60;;;;;;;23.69;55.46;100610.47;5054588;28;20033;-78
2022/09/06 01:59:16;;;;;;;29.38;7.05;;;;;;;23.80;54.98;100624.34;5054329;28;20040;-78
2022/09/06 02:01:57;;;;;;;39.22;7.80;;;;;;;23.81;54.61;100623.19;5054059;28;20029;-78
2022/09/06 02:04:32;;;;;;;38.28;7.70;;;;;;;23.80;54.52;100627.97;5048712;28;20059;-80
2022/09/06 02:07:07;;;;;;;29.77;8.55;;;;;;;23.76;54.73;100623.59;5054393;28;20029;-81
2022/09/06 02:09:39;;;;;;;36.15;6.93;;;;;;;23.73;54.94;100616.06;5054377;28;20021;-80
2022/09/06 02:12:11;;;;;;;30.27;7.38;;;;;;;23.69;54.77;100618.84;5054231;28;20036;-80
2022/09/06 02:14:44;;;;;;;40.72;8.55;;;;;;;23.71;54.97;100615.63;5054067;28;20024;-81
2022/09/06 02:17:14;;;;;;;26.98;6.82;;;;;;;23.83;54.30;100604.03;5054206;28;20025;-78
2022/09/06 02:20:01;;;;;;;30.27;7.13;;;;;;;23.75;54.52;100600.50;5054376;28;20040;-77
2022/09/06 02:22:30;;;;;;;30.48;7.25;;;;;;;23.50;55.49;100600.56;5053577;28;20414;-77
2022/09/06 02:24:59;;;;;;;35.70;8.15;;;;;;;23.57;54.93;100599.72;5053670;28;20533;-79
2022/09/06 02:27:25;;;;;;;33.70;8.38;;;;;;;23.39;55.72;100590.66;5053942;28;20116;-77
2022/09/06 02:29:51;;;;;;;28.77;7.90;;;;;;;23.45;55.61;100587.03;5053742;28;20082;-77
2022/09/06 02:32:22;;;;;;;32.20;8.10;;;;;;;23.62;54.79;100598.56;5053741;28;20033;-80
2022/09/06 02:34:51;;;;;;;29.17;6.97;;;;;;;23.46;55.60;100599.00;5053643;28;20024;-77
2022/09/06 02:37:17;;;;;;;28.90;7.75;;;;;;;23.49;55.54;100598.97;5053776;28;20028;-78
2022/09/06 02:39:43;;;;;;;26.50;6.68;;;;;;;23.40;55.42;100606.19;5053658;28;20029;-77
2022/09/06 02:42:11;;;;;;;38.13;8.55;;;;;;;23.51;55.08;100590.22;5052401;28;20037;-77
2022/09/06 02:44:37;;;;;;;29.13;6.35;;;;;;;23.22;56.06;100590.31;5053503;28;20475;-78
2022/09/06 02:47:02;;;;;;;31.58;6.57;;;;;;;23.32;55.93;100582.31;5053817;28;20116;-76
2022/09/06 02:49:29;;;;;;;34.17;7.00;;;;;;;23.49;55.58;100587.00;5053527;28;20525;-77
2022/09/06 02:51:56;;;;;;;44.17;8.18;;;;;;;23.33;55.88;100583.91;5053216;28;20048;-77
2022/09/06 02:54:22;;;;;;;32.78;6.95;;;;;;;23.05;57.25;100581.97;5053187;28;20107;-77
2022/09/06 02:56:47;;;;;;;44.83;9.32;;;;;;;23.20;56.80;100584.34;5053628;28;20037;-77
2022/09/06 02:59:13;;;;;;;28.33;6.95;;;;;;;23.37;56.17;100585.50;5053272;28;20475;-77
2022/09/06 03:01:39;;;;;;;27.65;6.95;;;;;;;23.46;55.64;100601.78;5053090;28;20029;-77
2022/09/06 03:04:04;;;;;;;33.10;8.68;;;;;;;23.51;55.57;100590.22;5052905;28;20519;-77
2022/09/06 03:06:30;;;;;;;33.15;7.38;;;;;;;23.61;55.49;100594.97;5053128;28;20021;-77
2022/09/06 03:08:56;;;;;;;43.63;7.80;;;;;;;23.46;55.84;100588.63;5053001;28;20022;-77
2022/09/06 03:11:21;;;;;;;31.00;7.03;;;;;;;23.43;56.33;100594.25;5053278;28;20035;-76
2022/09/06 03:13:49;;;;;;;37.42;7.38;;;;;;;23.71;55.21;100593.31;5052870;28;20033;-77
2022/09/06 03:16:15;;;;;;;27.83;6.63;;;;;;;23.59;55.91;100586.19;5053170;28;20494;-77
2022/09/06 03:18:41;;;;;;;39.63;7.78;;;;;;;23.52;56.04;100581.44;5052887;28;20033;-76
2022/09/06 03:21:07;;;;;;;37.97;6.63;;;;;;;23.58;55.94;100594.94;5052907;28;20029;-77
2022/09/06 03:23:32;;;;;;;33.05;7.20;;;;;;;23.59;56.14;100577.81;5052654;28;20056;-80
2022/09/06 03:25:58;;;;;;;34.17;7.45;;;;;;;23.41;56.71;100571.53;5052597;28;20029;-79
2022/09/06 03:28:24;;;;;;;33.58;6.38;;;;;;;23.36;56.78;100574.75;5052501;28;20040;-77
2022/09/06 03:30:51;;;;;;;29.17;7.18;;;;;;;23.50;56.28;100561.53;5052782;28;20062;-77
2022/09/06 03:33:17;;;;;;;34.95;7.25;;;;;;;23.52;56.55;100566.72;5052549;28;20021;-77
2022/09/06 03:35:57;;;;;;;31.05;7.13;;;;;;;23.47;56.69;100569.91;5052382;28;20033;-77
2022/09/06 03:38:24;;;;;;;28.60;6.82;;;;;;;23.66;55.96;100555.50;5052557;28;20029;-78
2022/09/06 03:40:51;;;;;;;33.90;6.80;;;;;;;23.53;56.49;100565.50;5052690;28;20387;-77
2022/09/06 03:43:18;;;;;;;31.42;6.55;;;;;;;23.40;56.85;100562.38;5052545;28;20103;-77
2022/09/06 03:45:46;;;;;;;35.13;7.38;;;;;;;23.50;56.14;100560.72;5052391;28;20064;-79
2022/09/06 03:48:11;;;;;;;27.23;6.90;;;;;;;23.47;56.17;100572.69;5052650;28;20386;-77
2022/09/06 03:50:37;;;;;;;24.60;5.70;;;;;;;23.33;56.73;100565.19;5052356;28;20025;-77
2022/09/06 03:53:02;;;;;;;31.42;7.10;;;;;;;23.40;56.10;100561.56;5050563;28;20136;-77
2022/09/06 03:55:28;;;;;;;21.85;6.50;;;;;;;23.25;56.89;100566.41;5052441;28;20047;-77
2022/09/06 03:57:53;;;;;;;33.70;6.80;;;;;;;23.34;56.22;100557.59;5052404;28;20092;-77
2022/09/06 04:00:19;;;;;;;29.65;6.18;;;;;;;23.59;55.23;100563.88;5052295;28;20029;-77
2022/09/06 04:02:45;;;;;;;24.73;6.63;;;;;;;23.48;55.71;100569.50;5051956;28;20104;-76
2022/09/06 04:05:12;;;;;;;29.38;6.30;;;;;;;23.68;55.12;100564.25;5051862;28;20037;-80
2022/09/06 04:07:38;;;;;;;30.75;6.90;;;;;;;23.62;54.95;100563.09;5052201;28;20029;-77
2022/09/06 04:10:04;;;;;;;26.95;6.35;;;;;;;23.40;55.47;100562.38;5052250;28;20048;-77
2022/09/06 04:12:29;;;;;;;30.25;6.45;;;;;;;23.46;55.44;100565.53;5052401;28;20045;-79
2022/09/06 04:14:55;;;;;;;29.27;7.57;;;;;;;23.59;54.96;100566.66;5051962;28;20368;-80
2022/09/06 04:17:20;;;;;;;32.22;6.70;;;;;;;23.51;54.85;100562.34;5050998;28;20041;-76
2022/09/06 04:19:46;;;;;;;28.23;6.80;;;;;;;23.33;55.88;100559.59;5052056;28;20138;-79
2022/09/06 04:22:12;;;;;;;28.17;7.47;;;;;;;23.60;54.38;100564.69;5052327;28;20033;-77
2022/09/06 04:24:37;;;;;;;25.42;5.32;;;;;;;23.64;54.60;100560.69;5052258;28;20040;-77
2022/09/06 04:27:03;;;;;;;33.78;7.10;;;;;;;23.33;55.53;100559.59;5052293;28;20375;-77
2022/09/06 04:29:29;;;;;;;34.20;6.53;;;;;;;23.50;55.17;100557.94;5050996;28;20079;-77
2022/09/06 04:31:54;;;;;;;24.88;6.00;;;;;;;23.35;55.78;100548.03;5052223;28;20033;-78
2022/09/06 04:34:20;;;;;;;25.35;5.38;;;;;;;23.64;54.29;100548.72;5052207;28;20052;-77
2022/09/06 04:36:45;;;;;;;22.30;5.22;;;;;;;23.56;54.40;100547.16;5051804;28;20021;-79
2022/09/06 04:39:11;;;;;;;20.40;6.00;;;;;;;23.38;54.94;100544.47;5055183;28;20372;-80
2022/09/06 04:41:36;;;;;;;22.83;5.70;;;;;;;23.55;54.63;100543.56;5056195;28;20028;-81
2022/09/06 04:44:02;;;;;;;23.95;6.00;;;;;;;23.55;54.42;100546.38;5056107;28;20486;-78
2022/09/06 04:46:29;;;;;;;21.00;5.95;;;;;;;23.65;54.37;100551.13;5055403;28;20024;-81
2022/09/06 04:48:56;;;;;;;29.65;6.68;;;;;;;23.56;54.56;100547.16;5055938;28;20037;-81
2022/09/06 04:51:23;;;;;;;31.02;7.03;;;;;;;23.65;54.27;100545.53;5054723;28;20029;-79
2022/09/06 04:53:49;;;;;;;17.33;5.28;;;;;;;23.49;54.55;100547.97;5055871;28;20037;-81
2022/09/06 04:56:20;;;;;;;22.98;5.55;;;;;;;23.44;54.63;100554.00;5055828;28;20032;-81
2022/09/06 04:58:48;;;;;;;22.63;4.70;;;;;;;23.69;53.77;100546.31;5056010;28;20111;-78
2022/09/06 05:01:13;;;;;;;30.17;5.85;;;;;;;23.70;53.65;100542.31;5055787;28;20029;-77
2022/09/06 05:03:39;;;;;;;19.85;5.82;;;;;;;23.42;54.52;100548.00;5055762;28;20044;-78
2022/09/06 05:06:09;;;;;;;32.55;6.30;;;;;;;23.77;53.49;100553.44;5055587;28;20028;-79
2022/09/06 05:08:37;;;;;;;23.33;5.70;;;;;;;23.73;53.33;100552.69;5055582;28;20082;-78
2022/09/06 05:11:03;;;;;;;25.80;6.97;;;;;;;23.67;53.32;100559.09;5055563;28;20431;-79
2022/09/06 05:13:29;;;;;;;28.83;7.35;;;;;;;23.79;53.03;100555.81;5055650;28;20021;-80
2022/09/06 05:15:55;;;;;;;25.60;5.72;;;;;;;23.41;54.03;100568.72;5055462;28;20434;-78
2022/09/06 05:18:20;;;;;;;24.10;6.57;;;;;;;23.50;53.93;100567.13;5055463;28;20040;-78
2022/09/06 05:20:53;;;;;;;36.60;7.25;;;;;;;23.45;54.02;100564.75;5048746;28;20037;-82
2022/09/06 05:23:20;;;;;;;24.60;6.72;;;;;;;23.32;54.50;100560.81;5043466;28;20438;-80
2022/09/06 05:25:45;;;;;;;26.25;6.88;;;;;;;23.33;54.32;100558.81;5044198;28;20051;-82
2022/09/06 05:28:11;;;;;;;32.88;7.45;;;;;;;23.27;54.37;100561.22;5045381;28;20479;-81
2022/09/06 05:30:36;;;;;;;31.55;5.57;;;;;;;23.29;54.34;100558.03;5045403;28;20016;-80
2022/09/06 05:33:02;;;;;;;30.67;7.43;;;;;;;23.18;54.92;100553.28;5043857;28;20030;-81
2022/09/06 05:35:28;;;;;;;25.55;5.75;;;;;;;23.31;54.58;100564.00;5043289;28;20112;-80
2022/09/06 05:37:53;;;;;;;34.78;6.50;;;;;;;23.16;55.14;100572.41;5042848;28;20079;-78
2022/09/06 05:40:19;;;;;;;30.77;5.72;;;;;;;23.41;54.05;100558.38;5042421;28;20032;-80
2022/09/06 05:42:44;;;;;;;31.83;6.93;;;;;;;23.35;54.38;100559.19;5045146;28;20017;-80
2022/09/06 05:45:10;;;;;;;21.05;6.22;;;;;;;23.28;54.85;100567.59;5044500;28;20035;-78
2022/09/06 05:47:37;;;;;;;22.10;5.45;;;;;;;23.39;54.26;100565.56;5042919;28;20017;-78
2022/09/06 05:50:03;;;;;;;27.33;6.38;;;;;;;23.43;54.19;100571.94;5043791;28;20017;-80
2022/09/06 05:52:29;;;;;;;47.63;7.57;;;;;;;23.42;54.64;100573.09;5042040;28;20041;-80
2022/09/06 05:54:54;;;;;;;32.40;6.22;;;;;;;23.41;54.44;100574.31;5043586;28;20025;-81
2022/09/06 05:57:20;;;;;;;29.73;6.03;;;;;;;23.43;54.55;100564.34;5044967;28;20056;-80
2022/09/06 05:59:45;;;;;;;31.83;6.57;;;;;;;23.16;55.34;100569.63;5042156;28;20105;-77
2022/09/06 06:02:11;;;;;;;29.33;7.10;;;;;;;23.48;54.64;100568.69;5034938;28;20029;-77
2022/09/06 06:04:37;;;;;;;34.80;6.97;;;;;;;23.38;54.86;100561.19;5034627;28;20468;-77
2022/09/06 06:07:02;;;;;;;29.85;7.05;;;;;;;23.45;54.70;100561.94;5040172;28;20037;-76
2022/09/06 06:09:28;;;;;;;20.73;6.40;;;;;;;23.59;54.07;100563.09;5053148;28;20124;-79
2022/09/06 06:11:53;;;;;;;29.63;6.43;;;;;;;23.51;54.58;100573.50;5054358;28;20087;-77
2022/09/06 06:14:19;;;;;;;24.58;6.50;;;;;;;23.17;55.63;100571.19;5054349;28;20453;-77
2022/09/06 06:16:44;;;;;;;27.45;6.90;;;;;;;23.48;54.30;100574.28;5052974;28;20489;-77
2022/09/06 06:19:10;;;;;;;21.50;4.90;;;;;;;23.45;54.54;100581.47;5052987;28;20073;-77
2022/09/06 06:21:37;;;;;;;35.08;6.82;;;;;;;23.52;54.32;100580.66;5054103;28;20037;-77
2022/09/06 06:24:04;;;;;;;25.00;6.43;;;;;;;23.46;54.83;100585.06;5052717;28;20479;-76
2022/09/06 06:26:33;;;;;;;27.27;6.13;;;;;;;23.48;54.06;100574.28;5053951;28;20033;-77
2022/09/06 06:29:00;;;;;;;25.30;5.25;;;;;;;23.69;53.55;100579.78;5054126;28;20032;-76
2022/09/06 06:31:31;;;;;;;30.55;7.03;;;;;;;23.64;53.73;100576.63;5052801;28;20029;-77
2022/09/06 06:33:57;;;;;;;24.85;6.15;;;;;;;23.61;54.19;100583.81;5054283;28;20029;-79
2022/09/06 06:36:25;;;;;;;32.22;6.72;;;;;;;23.53;54.23;100573.88;5052746;28;20475;-79
2022/09/06 06:38:54;;;;;;;23.05;6.40;;;;;;;23.67;54.02;100576.63;5053969;28;20114;-80
2022/09/06 06:41:22;;;;;;;25.30;7.18;;;;;;;23.66;53.74;100572.25;5053871;28;20021;-78
2022/09/06 06:43:53;;;;;;;35.25;7.05;;;;;;;23.60;54.42;100568.28;5053194;28;20025;-76
2022/09/06 06:46:19;;;;;;;32.05;7.75;;;;;;;23.70;54.14;100559.06;5053957;28;20395;-77
2022/09/06 06:48:45;;;;;;;29.30;6.30;;;;;;;23.79;53.55;100545.47;5053858;28;20037;-77
2022/09/06 06:51:20;;;;;;;27.38;4.90;;;;;;;23.85;53.49;100564.56;5053835;28;20064;-78
2022/09/06 06:53:47;;;;;;;25.00;5.47;;;;;;;23.80;53.95;100562.97;5053672;28;20036;-77
2022/09/06 06:56:23;;;;;;;26.30;6.45;;;;;;;23.98;53.54;100571.25;5052640;28;20087;-78
2022/09/06 06:58:51;;;;;;;22.38;5.57;;;;;;;24.00;53.30;100566.06;5051795;28;20029;-79
2022/09/06 07:01:21;;;;;;;25.60;7.47;;;;;;;24.03;53.44;100554.06;5050488;28;20036;-79
2022/09/06 07:03:47;;;;;;;;;;;;;;;23.86;54.59;100546.63;5036764;28;20032;-82
2022/09/06 07:06:13;;;;;;;24.05;7.13;;;;;;;24.05;53.94;100551.69;5051075;28;20302;-77
2022/09/06 07:08:40;;;;;;;27.90;6.30;;;;;;;24.11;53.92;100544.47;5051853;28;20364;-79
2022/09/06 07:11:07;;;;;;;29.63;6.97;;;;;;;24.21;53.42;100548.38;5053269;28;20053;-78
2022/09/06 07:13:33;;;;;;;22.50;5.43;;;;;;;24.21;53.34;100545.59;5052850;28;20029;-78
2022/09/06 07:16:28;;;;;;;33.63;7.13;;;;;;;24.15;53.64;100539.63;5053353;28;20033;-77
2022/09/06 07:18:54;;;;;;;26.55;6.72;;;;;;;24.25;53.23;100544.34;5052858;28;20028;-79
2022/09/06 07:21:27;;;;;;;42.90;8.32;;;;;;;24.25;53.43;100543.53;5067313;28;20075;-78
2022/09/06 07:23:54;;;;;;;38.13;8.75;;;;;;;24.39;53.02;100531.50;5052517;28;20087;-78
2022/09/06 07:26:25;;;;;;;33.40;6.65;;;;;;;24.32;53.06;100533.13;5052517;28;20025;-78
2022/09/06 07:28:56;;;;;;;40.55;8.20;;;;;;;24.34;53.19;100535.53;5052366;28;20033;-78
2022/09/06 07:31:21;;;;;;;29.35;7.47;;;;;;;24.34;53.57;100524.38;5051949;28;20028;-78
2022/09/06 07:33:48;;;;;;;33.80;8.40;;;;;;;24.48;52.91;100537.41;5051485;28;20075;-78
2022/09/06 07:36:14;;;;;;;27.40;6.47;;;;;;;24.60;52.78;100515.34;5051854;28;20127;-78
2022/09/06 07:38:39;;;;;;;28.13;7.57;;;;;;;24.67;52.36;100536.03;5052385;28;20048;-78
2022/09/06 07:41:07;;;;;;;32.55;7.32;;;;;;;24.48;53.42;100524.22;5052200;28;20466;-78
2022/09/06 07:43:33;;;;;;;28.15;8.10;;;;;;;24.33;53.76;100520.78;5051121;28;20530;-78
2022/09/06 07:46:11;;;;;;;36.05;7.70;;;;;;;24.46;52.82;100520.25;5050909;28;20033;-82
2022/09/06 07:48:39;;;;;;;29.10;6.25;;;;;;;24.52;52.45;100515.81;5051149;28;20031;-78
2022/09/06 07:51:10;;;;;;;27.33;7.68;;;;;;;24.58;52.33;100522.56;5052086;28;20020;-78
2022/09/06 07:53:38;;;;;;;29.08;6.13;;;;;;;24.63;51.99;100519.28;5052273;28;20395;-78
2022/09/06 07:56:05;;;;;;;29.60;6.82;;;;;;;24.49;52.39;100520.25;5052405;28;20029;-78
2022/09/06 07:58:31;;;;;;;25.88;6.18;;;;;;;24.64;51.86;100515.31;5052704;28;20036;-78
2022/09/06 08:01:25;;;;;;;35.00;7.93;;;;;;;24.62;51.56;100515.72;5052695;28;20032;-78
2022/09/06 08:03:51;;;;;;;21.25;5.38;;;;;;;24.67;51.89;100508.91;5052551;28;20024;-78
2022/09/06 08:06:17;;;;;;;25.23;5.68;;;;;;;24.68;51.63;100520.84;5052636;28;20025;-79
2022/09/06 08:08:42;;;;;;;24.35;5.97;;;;;;;24.88;50.99;100525.44;5051156;28;20024;-79
2022/09/06 08:11:08;;;;;;;25.15;6.00;;;;;;;24.65;51.30;100516.09;5067748;28;20029;-79
2022/09/06 08:13:35;;;;;;;20.30;5.28;;;;;;;24.73;51.18;100520.41;5052388;28;20033;-79
2022/09/06 08:16:03;;;;;;;25.63;6.55;;;;;;;24.86;50.75;100516.69;5051159;28;20552;-79
2022/09/06 08:18:29;;;;;;;27.27;6.00;;;;;;;24.90;50.87;100514.63;5052642;28;20025;-79
2022/09/06 08:20:55;;;;;;;22.70;4.75;;;;;;;25.04;50.71;100516.50;5052588;28;20541;-79
2022/09/06 08:23:20;;;;;;;23.05;6.07;;;;;;;25.03;50.72;100520.50;5052446;28;20048;-79
2022/09/06 08:25:59;;;;;;;32.47;8.20;;;;;;;25.06;50.58;100527.25;5052433;28;20087;-79
2022/09/06 08:28:25;;;;;;;25.00;6.25;;;;;;;25.27;50.01;100523.41;5052330;28;20033;-79
2022/09/06 08:30:51;;;;;;;27.60;6.18;;;;;;;25.33;50.12;100524.53;5052385;28;20025;-79
2022/09/06 08:33:24;;;;;;;27.13;6.65;;;;;;;25.46;49.75;100531.94;5052307;28;20025;-79
2022/09/06 08:35:59;;;;;;;25.50;6.85;;;;;;;25.59;49.21;100525.78;5052354;28;20515;-79
2022/09/06 08:38:26;;;;;;;26.25;6.30;;;;;;;25.30;49.67;100528.94;5052298;28;20029;-79
2022/09/06 08:40:53;;;;;;;23.70;7.30;;;;;;;25.67;48.93;100532.88;5052303;28;20036;-79
2022/09/06 08:43:20;;;;;;;27.70;6.88;;;;;;;25.75;48.55;100542.78;5052220;28;20107;-79
2022/09/06 08:45:51;;;;;;;20.52;5.55;;;;;;;25.78;48.23;100530.75;5052255;28;20095;-79
2022/09/06 08:48:18;;;;;;;26.50;6.35;;;;;;;25.82;48.14;100531.47;5052227;28;20021;-79
2022/09/06 08:50:54;;;;;;;23.08;5.97;;;;;;;25.85;47.71;100535.47;5052248;28;20475;-79
2022/09/06 08:53:20;;;;;;;26.23;5.95;;;;;;;25.95;47.93;100528.91;5052034;28;20047;-79
2022/09/06 08:55:53;;;;;;;22.85;5.47;;;;;;;25.98;47.70;100534.44;5052376;28;20056;-79
2022/09/06 08:58:44;;;;;;;38.28;9.13;;;;;;;25.77;48.61;100520.78;5052204;28;20033;-79
2022/09/06 09:01:17;;;;;;;29.10;6.22;;;;;;;25.77;48.21;100534.78;5051969;28;20078;-79
2022/09/06 09:03:43;;;;;;;29.10;7.40;;;;;;;25.82;48.33;100534.28;5052032;28;20112;-79
2022/09/06 09:06:10;;;;;;;22.60;6.13;;;;;;;25.55;49.08;100534.25;5044467;28;20060;-78
2022/09/06 09:08:57;;;;;;;40.47;7.57;;;;;;;25.67;49.05;100535.66;5031775;28;20326;-79
2022/09/06 09:11:27;;;;;;;29.75;7.38;;;;;;;25.63;49.11;100543.34;5042027;28;20047;-79
2022/09/06 09:14:25;;;;;;;39.95;8.20;;;;;;;25.49;49.76;100541.50;5048253;28;20025;-79
2022/09/06 09:16:53;;;;;;;37.42;8.75;;;;;;;25.38;49.96;100535.25;5045903;28;20033;-80
2022/09/06 09:19:18;;;;;;;27.88;7.13;;;;;;;25.30;50.24;100542.94;5038774;28;20033;-81
2022/09/06 09:21:44;;;;;;;29.58;6.45;;;;;;;25.01;51.01;100541.66;5041020;28;20528;-80
2022/09/06 09:24:12;;;;;;;29.50;7.32;;;;;;;25.08;50.57;100534.00;5043443;28;20578;-80
2022/09/06 09:26:53;;;;;;;31.60;8.23;;;;;;;25.12;50.61;100553.56;5046222;28;20029;-80
2022/09/06 09:29:19;;;;;;;24.58;6.55;;;;;;;25.10;50.54;100542.00;5035253;28;20472;-80
2022/09/06 09:31:46;;;;;;;29.73;7.25;;;;;;;25.04;50.85;100544.44;5034735;28;20037;-80
2022/09/06 09:34:32;;;;;;;28.63;7.22;;;;;;;24.43;52.52;100537.84;5035356;28;20619;-82
2022/09/06 09:37:21;;;;;;;30.88;7.55;;;;;;;24.73;52.16;100548.34;5051109;28;20037;-82
2022/09/06 09:39:49;;;;;;;26.38;5.85;;;;;;;24.83;51.66;100547.44;5035552;28;20459;-82
2022/09/06 09:42:27;;;;;;;26.00;6.72;;;;;;;24.53;52.81;100556.50;5034425;28;20029;-82
2022/09/06 09:44:53;;;;;;;26.67;6.13;;;;;;;24.84;51.60;100552.59;5034562;28;20033;-82
2022/09/06 09:47:30;;;;;;;34.80;7.43;;;;;;;24.85;52.15;100536.63;5036061;28;20025;-81
2022/09/06 09:49:56;;;;;;;33.17;8.50;;;;;;;24.72;52.46;100543.97;5035530;28;20026;-81
2022/09/06 09:52:31;;;;;;;33.67;8.00;;;;;;;24.68;52.35;100532.81;5033505;28;20456;-81
2022/09/06 09:55:02;;;;;;;27.23;6.97;;;;;;;24.96;52.28;100525.34;5032522;28;20059;-80
2022/09/06 09:57:31;;;;;;;28.52;6.75;;;;;;;25.01;52.31;100538.84;5035033;28;20560;-81
2022/09/06 10:00:01;;;;;;;27.83;7.45;;;;;;;24.99;52.38;100538.50;5033584;28;20022;-80
2022/09/06 10:02:34;;;;;;;28.65;7.47;;;;;;;25.29;51.47;100532.97;5033632;28;20502;-80
2022/09/06 10:05:03;;;;;;;26.50;7.65;;;;;;;25.20;51.17;100529.09;5034818;28;20505;-82
2022/09/06 10:07:31;;;;;;;35.00;8.63;;;;;;;25.00;51.77;100540.06;5034755;28;20029;-81
2022/09/06 10:10:00;;;;;;;27.50;6.75;;;;;;;25.11;51.36;100538.00;5034783;28;20037;-80
2022/09/06 10:12:34;;;;;;;32.97;8.60;;;;;;;24.91;52.00;100529.38;5033457;28;20387;-81
2022/09/06 10:15:00;;;;;;;24.08;6.70;;;;;;;24.87;52.10;100531.44;5034760;28;20021;-81
2022/09/06 10:17:33;;;;;;;25.67;7.60;;;;;;;25.05;52.03;100534.06;5034592;28;20650;-82
2022/09/06 10:20:03;;;;;;;36.97;9.40;;;;;;;25.07;51.57;100535.22;5033492;28;20025;-82
2022/09/06 10:22:33;;;;;;;29.83;7.75;;;;;;;25.06;52.10;100532.84;5033251;28;20037;-80
2022/09/06 10:24:59;;;;;;;35.33;8.70;;;;;;;25.10;51.77;100530.81;5034989;28;20487;-80
2022/09/06 10:27:27;;;;;;;25.15;6.45;;;;;;;24.87;52.32;100526.66;5034495;28;20029;-79
2022/09/06 10:30:06;;;;;;;29.30;9.20;;;;;;;24.96;52.29;100530.94;5034387;28;20111;-80
2022/09/06 10:32:41;;;;;;;27.90;8.18;;;;;;;24.79;52.48;100532.72;5034073;28;20026;-81
2022/09/06 10:35:23;;;;;;;31.00;6.65;;;;;;;24.96;52.29;100526.16;5034460;28;20017;-81
2022/09/06 10:38:13;;;;;;;34.30;10.05;;;;;;;25.15;51.66;100521.94;5034207;28;20503;-82
2022/09/06 10:40:58;;;;;;;22.45;7.43;;;;;;;25.38;51.14;100519.25;5034233;28;20025;-80
2022/09/06 10:43:30;;;;;;;29.63;6.35;;;;;;;25.10;51.90;100522.44;5027560;28;20025;-81
2022/09/06 10:46:03;;;;;;;42.88;8.85;;;;;;;25.49;50.96;100515.56;5033981;28;20034;-80
2022/09/06 10:48:40;;;;;;;38.13;7.68;;;;;;;25.31;51.30;100512.97;5033934;28;20538;-82
2022/09/06 10:51:40;;;;;;;28.48;7.43;;;;;;;25.38;50.97;100505.28;5032972;28;20597;-80
2022/09/06 10:54:11;;;;;;;27.27;6.60;;;;;;;25.50;50.77;100498.34;5033391;28;20121;-82
2022/09/06 10:56:51;;;;;;;34.03;7.97;;;;;;;25.77;50.46;100498.38;5036647;28;20075;-80
2022/09/06 10:59:29;;;;;;;29.02;6.60;;;;;;;26.03;50.14;100501.59;5053656;28;20021;-80
2022/09/06 11:02:05;;;;;;;28.83;8.27;;;;;;;25.76;50.08;100491.19;5069040;28;20021;-81
2022/09/06 11:04:35;;;;;;;32.30;9.65;;;;;;;25.49;50.46;100484.78;5053514;28;20507;-81
2022/09/06 11:07:10;;;;;;;33.72;8.85;;;;;;;25.56;50.12;100490.28;5052294;28;20364;-79
2022/09/06 11:09:45;;;;;;;28.88;7.75;;;;;;;25.32;50.61;100495.78;5038670;28;20021;-80
2022/09/06 11:12:46;;;;;;;35.50;8.00;;;;;;;25.31;50.62;100490.59;5033467;28;20417;-80
2022/09/06 11:15:14;;;;;;;24.45;7.13;;;;;;;25.42;50.39;100491.25;5031630;28;20443;-80
2022/09/06 11:18:00;;;;;;;34.03;7.57;;;;;;;25.62;49.68;100483.78;5033398;28;20643;-81
2022/09/06 11:20:32;;;;;;;25.92;7.35;;;;;;;25.64;49.95;100486.16;5040066;28;20623;-80
2022/09/06 11:23:27;;;;;;;33.55;7.13;;;;;;;25.59;49.88;100481.81;5041100;28;20474;-79
2022/09/06 11:26:29;;;;;;;31.15;7.20;;;;;;;25.45;49.92;100471.63;5025210;28;20077;-79
2022/09/06 11:29:00;;;;;;;26.10;6.60;;;;;;;25.20;50.73;100470.38;5048460;28;20064;-80
2022/09/06 11:31:30;;;;;;;30.45;8.80;;;;;;;25.72;49.68;100460.47;5031843;28;20022;-80